sensor_id;sensor_type;location;lat;lon;timestamp;P1;durP1;ratioP1;P2;durP2;ratioP2
18677;SDS011;9469;51.114;13.914;2023-01-15T00:03:57;1.97;;;1.77;;
18677;SDS011;9469;51.114;13.914;2023-01-15T00:09:04;2.53;;;1.60;;
18677;SDS011;9469;51.114;13.914;2023-01-15T00:14:15;3.07;;;1.80;;
18677;SDS011;9469;51.114;13.914;2023-01-15T00:19:20;1.60;;;1.50;;
18677;SDS011;9469;51.114;13.914;2023-01-15T00:24:28;2.73;;;2.03;;
18677;SDS011;9469;51.114;13.914;2023-01-15T00:29:48;3.53;;;1.63;;
18677;SDS011;9469;51.114;13.914;2023-01-15T00:34:53;1.80;;;1.70;;
18677;SDS011;9469;51.114;13.914;2023-01-15T00:39:59;1.60;;;1.50;;
18677;SDS011;9469;51.114;13.914;2023-01-15T00:45:09;2.07;;;1.97;;
18677;SDS011;9469;51.114;13.914;2023-01-15T00:50:16;1.80;;;1.70;;
18677;SDS011;9469;51.114;13.914;2023-01-15T00:55:21;2.73;;;1.73;;
18677;SDS011;9469;51.114;13.914;2023-01-15T01:00:29;2.00;;;1.60;;
18677;SDS011;9469;51.114;13.914;2023-01-15T01:05:34;1.60;;;1.50;;
18677;SDS011;9469;51.114;13.914;2023-01-15T01:10:39;1.93;;;1.70;;
18677;SDS011;9469;51.114;13.914;2023-01-15T01:15:48;3.40;;;1.70;;
18677;SDS011;9469;51.114;13.914;2023-01-15T01:20:54;3.17;;;2.30;;
18677;SDS011;9469;51.114;13.914;2023-01-15T01:25:59;2.40;;;2.10;;
18677;SDS011;9469;51.114;13.914;2023-01-15T01:31:07;2.27;;;2.07;;
18677;SDS011;9469;51.114;13.914;2023-01-15T01:36:13;3.10;;;2.10;;
18677;SDS011;9469;51.114;13.914;2023-01-15T01:41:18;1.33;;;1.20;;
18677;SDS011;9469;51.114;13.914;2023-01-15T01:46:27;2.07;;;1.90;;
18677;SDS011;9469;51.114;13.914;2023-01-15T01:51:34;2.33;;;2.13;;
18677;SDS011;9469;51.114;13.914;2023-01-15T01:56:42;4.23;;;2.23;;
18677;SDS011;9469;51.114;13.914;2023-01-15T02:01:50;3.30;;;2.40;;
18677;SDS011;9469;51.114;13.914;2023-01-15T02:06:57;2.20;;;1.70;;
18677;SDS011;9469;51.114;13.914;2023-01-15T02:12:06;2.07;;;1.90;;
18677;SDS011;9469;51.114;13.914;2023-01-15T02:17:19;2.40;;;2.20;;
18677;SDS011;9469;51.114;13.914;2023-01-15T02:22:32;3.67;;;2.30;;
18677;SDS011;9469;51.114;13.914;2023-01-15T02:27:53;4.37;;;2.40;;
18677;SDS011;9469;51.114;13.914;2023-01-15T02:33:03;3.47;;;2.30;;
18677;SDS011;9469;51.114;13.914;2023-01-15T02:38:14;2.50;;;2.30;;
18677;SDS011;9469;51.114;13.914;2023-01-15T02:43:28;1.77;;;1.63;;
18677;SDS011;9469;51.114;13.914;2023-01-15T02:48:39;2.13;;;2.03;;
18677;SDS011;9469;51.114;13.914;2023-01-15T02:53:48;3.63;;;2.10;;
18677;SDS011;9469;51.114;13.914;2023-01-15T02:59:00;2.37;;;2.17;;
18677;SDS011;9469;51.114;13.914;2023-01-15T03:04:13;2.40;;;2.00;;
18677;SDS011;9469;51.114;13.914;2023-01-15T03:09:23;2.33;;;1.97;;
18677;SDS011;9469;51.114;13.914;2023-01-15T03:14:33;2.87;;;2.10;;
18677;SDS011;9469;51.114;13.914;2023-01-15T03:19:44;1.70;;;1.60;;
18677;SDS011;9469;51.114;13.914;2023-01-15T03:24:57;5.03;;;1.90;;
18677;SDS011;9469;51.114;13.914;2023-01-15T03:30:19;1.83;;;1.70;;
18677;SDS011;9469;51.114;13.914;2023-01-15T03:35:38;1.67;;;1.37;;
18677;SDS011;9469;51.114;13.914;2023-01-15T03:41:01;1.90;;;1.60;;
18677;SDS011;9469;51.114;13.914;2023-01-15T03:46:20;1.10;;;1.10;;
18677;SDS011;9469;51.114;13.914;2023-01-15T03:51:36;5.10;;;1.43;;
18677;SDS011;9469;51.114;13.914;2023-01-15T03:56:51;1.40;;;1.30;;
18677;SDS011;9469;51.114;13.914;2023-01-15T04:02:06;2.57;;;1.63;;
18677;SDS011;9469;51.114;13.914;2023-01-15T04:07:15;1.40;;;1.30;;
18677;SDS011;9469;51.114;13.914;2023-01-15T04:12:21;1.70;;;1.40;;
18677;SDS011;9469;51.114;13.914;2023-01-15T04:17:32;1.70;;;1.50;;
18677;SDS011;9469;51.114;13.914;2023-01-15T04:22:37;2.00;;;1.80;;
18677;SDS011;9469;51.114;13.914;2023-01-15T04:27:42;1.93;;;1.83;;
18677;SDS011;9469;51.114;13.914;2023-01-15T04:32:50;3.37;;;2.00;;
18677;SDS011;9469;51.114;13.914;2023-01-15T04:37:56;2.23;;;1.40;;
18677;SDS011;9469;51.114;13.914;2023-01-15T04:43:01;2.93;;;1.90;;
18677;SDS011;9469;51.114;13.914;2023-01-15T04:48:21;2.37;;;1.80;;
18677;SDS011;9469;51.114;13.914;2023-01-15T04:53:26;1.93;;;1.63;;
18677;SDS011;9469;51.114;13.914;2023-01-15T04:58:32;2.30;;;1.50;;
18677;SDS011;9469;51.114;13.914;2023-01-15T05:03:40;2.13;;;1.73;;
18677;SDS011;9469;51.114;13.914;2023-01-15T05:08:45;3.83;;;1.87;;
18677;SDS011;9469;51.114;13.914;2023-01-15T05:13:51;1.80;;;1.70;;
18677;SDS011;9469;51.114;13.914;2023-01-15T05:19:01;2.03;;;1.80;;
18677;SDS011;9469;51.114;13.914;2023-01-15T05:24:09;1.10;;;1.10;;
18677;SDS011;9469;51.114;13.914;2023-01-15T05:29:17;1.40;;;1.30;;
18677;SDS011;9469;51.114;13.914;2023-01-15T05:34:25;1.10;;;1.10;;
18677;SDS011;9469;51.114;13.914;2023-01-15T05:39:30;1.20;;;1.20;;
18677;SDS011;9469;51.114;13.914;2023-01-15T05:44:35;1.20;;;1.20;;
18677;SDS011;9469;51.114;13.914;2023-01-15T05:49:44;1.70;;;1.30;;
18677;SDS011;9469;51.114;13.914;2023-01-15T05:54:50;1.70;;;1.60;;
18677;SDS011;9469;51.114;13.914;2023-01-15T05:59:57;1.87;;;1.77;;
18677;SDS011;9469;51.114;13.914;2023-01-15T06:05:15;2.13;;;1.90;;
18677;SDS011;9469;51.114;13.914;2023-01-15T06:10:22;2.00;;;1.90;;
18677;SDS011;9469;51.114;13.914;2023-01-15T06:15:26;2.30;;;2.10;;
18677;SDS011;9469;51.114;13.914;2023-01-15T06:25:45;2.27;;;2.07;;
18677;SDS011;9469;51.114;13.914;2023-01-15T06:30:56;2.87;;;1.90;;
18677;SDS011;9469;51.114;13.914;2023-01-15T06:36:04;2.37;;;2.17;;
18677;SDS011;9469;51.114;13.914;2023-01-15T06:41:14;3.10;;;2.80;;
18677;SDS011;9469;51.114;13.914;2023-01-15T06:46:32;3.67;;;2.77;;
18677;SDS011;9469;51.114;13.914;2023-01-15T06:51:53;2.50;;;2.30;;
18677;SDS011;9469;51.114;13.914;2023-01-15T06:56:57;0.93;;;0.80;;
18677;SDS011;9469;51.114;13.914;2023-01-15T07:02:02;0.90;;;0.77;;
18677;SDS011;9469;51.114;13.914;2023-01-15T07:07:10;4.20;;;0.90;;
18677;SDS011;9469;51.114;13.914;2023-01-15T07:12:15;1.00;;;0.90;;
18677;SDS011;9469;51.114;13.914;2023-01-15T07:17:21;1.60;;;0.90;;
18677;SDS011;9469;51.114;13.914;2023-01-15T07:22:29;1.33;;;1.17;;
18677;SDS011;9469;51.114;13.914;2023-01-15T07:27:34;1.20;;;1.10;;
18677;SDS011;9469;51.114;13.914;2023-01-15T07:32:39;1.20;;;1.20;;
18677;SDS011;9469;51.114;13.914;2023-01-15T07:37:54;1.93;;;1.13;;
18677;SDS011;9469;51.114;13.914;2023-01-15T07:42:59;2.93;;;1.30;;
18677;SDS011;9469;51.114;13.914;2023-01-15T07:48:16;4.63;;;1.30;;
18677;SDS011;9469;51.114;13.914;2023-01-15T07:53:36;1.20;;;1.00;;
18677;SDS011;9469;51.114;13.914;2023-01-15T07:58:41;3.67;;;1.30;;
18677;SDS011;9469;51.114;13.914;2023-01-15T08:03:53;2.87;;;1.10;;
18677;SDS011;9469;51.114;13.914;2023-01-15T08:09:00;1.13;;;1.03;;
18677;SDS011;9469;51.114;13.914;2023-01-15T08:14:05;0.83;;;0.83;;
18677;SDS011;9469;51.114;13.914;2023-01-15T08:19:23;1.37;;;1.00;;
18677;SDS011;9469;51.114;13.914;2023-01-15T08:24:33;0.70;;;0.70;;
18677;SDS011;9469;51.114;13.914;2023-01-15T08:29:38;1.07;;;0.97;;
18677;SDS011;9469;51.114;13.914;2023-01-15T08:34:43;1.07;;;0.90;;
18677;SDS011;9469;51.114;13.914;2023-01-15T08:39:51;2.70;;;1.27;;
18677;SDS011;9469;51.114;13.914;2023-01-15T08:44:56;1.40;;;1.00;;
18677;SDS011;9469;51.114;13.914;2023-01-15T08:50:01;1.00;;;0.90;;
18677;SDS011;9469;51.114;13.914;2023-01-15T08:55:09;2.00;;;0.90;;
18677;SDS011;9469;51.114;13.914;2023-01-15T09:00:15;1.80;;;0.80;;
18677;SDS011;9469;51.114;13.914;2023-01-15T09:05:24;1.37;;;1.00;;
18677;SDS011;9469;51.114;13.914;2023-01-15T09:10:33;2.60;;;1.30;;
18677;SDS011;9469;51.114;13.914;2023-01-15T09:15:41;1.43;;;1.33;;
18677;SDS011;9469;51.114;13.914;2023-01-15T09:20:46;1.10;;;1.10;;
18677;SDS011;9469;51.114;13.914;2023-01-15T09:25:55;2.30;;;1.33;;
18677;SDS011;9469;51.114;13.914;2023-01-15T09:31:01;1.07;;;1.07;;
18677;SDS011;9469;51.114;13.914;2023-01-15T09:36:11;1.30;;;1.20;;
18677;SDS011;9469;51.114;13.914;2023-01-15T09:41:22;1.00;;;1.00;;
18677;SDS011;9469;51.114;13.914;2023-01-15T09:46:43;2.07;;;1.30;;
18677;SDS011;9469;51.114;13.914;2023-01-15T09:52:03;1.20;;;1.20;;
18677;SDS011;9469;51.114;13.914;2023-01-15T09:57:19;1.20;;;1.17;;
18677;SDS011;9469;51.114;13.914;2023-01-15T10:02:28;1.10;;;1.10;;
18677;SDS011;9469;51.114;13.914;2023-01-15T10:07:39;1.00;;;1.00;;
18677;SDS011;9469;51.114;13.914;2023-01-15T10:12:52;1.30;;;1.20;;
18677;SDS011;9469;51.114;13.914;2023-01-15T10:18:01;1.73;;;1.20;;
18677;SDS011;9469;51.114;13.914;2023-01-15T10:23:14;1.67;;;1.57;;
18677;SDS011;9469;51.114;13.914;2023-01-15T10:28:39;1.07;;;1.07;;
18677;SDS011;9469;51.114;13.914;2023-01-15T10:33:59;3.80;;;2.40;;
18677;SDS011;9469;51.114;13.914;2023-01-15T10:39:25;1.20;;;1.20;;
18677;SDS011;9469;51.114;13.914;2023-01-15T10:44:40;1.40;;;1.23;;
18677;SDS011;9469;51.114;13.914;2023-01-15T10:49:52;1.40;;;1.30;;
18677;SDS011;9469;51.114;13.914;2023-01-15T10:54:59;1.40;;;1.30;;
18677;SDS011;9469;51.114;13.914;2023-01-15T11:00:13;2.27;;;1.40;;
18677;SDS011;9469;51.114;13.914;2023-01-15T11:05:21;2.37;;;1.20;;
18677;SDS011;9469;51.114;13.914;2023-01-15T11:10:26;1.30;;;1.20;;
18677;SDS011;9469;51.114;13.914;2023-01-15T11:15:34;1.27;;;1.27;;
18677;SDS011;9469;51.114;13.914;2023-01-15T11:20:52;1.37;;;1.27;;
18677;SDS011;9469;51.114;13.914;2023-01-15T11:25:58;1.20;;;1.10;;
18677;SDS011;9469;51.114;13.914;2023-01-15T11:31:08;1.07;;;1.07;;
18677;SDS011;9469;51.114;13.914;2023-01-15T11:36:19;1.27;;;1.17;;
18677;SDS011;9469;51.114;13.914;2023-01-15T11:41:27;1.67;;;0.90;;
18677;SDS011;9469;51.114;13.914;2023-01-15T11:46:56;0.97;;;0.97;;
18677;SDS011;9469;51.114;13.914;2023-01-15T11:52:15;0.80;;;0.80;;
18677;SDS011;9469;51.114;13.914;2023-01-15T11:57:27;0.90;;;0.90;;
18677;SDS011;9469;51.114;13.914;2023-01-15T12:02:44;0.80;;;0.80;;
18677;SDS011;9469;51.114;13.914;2023-01-15T12:07:51;1.10;;;1.10;;
18677;SDS011;9469;51.114;13.914;2023-01-15T12:13:00;1.10;;;1.00;;
18677;SDS011;9469;51.114;13.914;2023-01-15T12:18:30;1.30;;;1.30;;
18677;SDS011;9469;51.114;13.914;2023-01-15T12:24:01;1.30;;;1.20;;
18677;SDS011;9469;51.114;13.914;2023-01-15T12:29:18;1.00;;;1.00;;
18677;SDS011;9469;51.114;13.914;2023-01-15T12:34:32;1.00;;;1.00;;
18677;SDS011;9469;51.114;13.914;2023-01-15T12:39:51;0.87;;;0.87;;
18677;SDS011;9469;51.114;13.914;2023-01-15T12:45:03;1.57;;;0.80;;
18677;SDS011;9469;51.114;13.914;2023-01-15T12:55:47;1.43;;;1.33;;
18677;SDS011;9469;51.114;13.914;2023-01-15T13:01:00;1.10;;;1.00;;
18677;SDS011;9469;51.114;13.914;2023-01-15T13:06:13;1.10;;;1.00;;
18677;SDS011;9469;51.114;13.914;2023-01-15T13:11:20;0.97;;;0.97;;
18677;SDS011;9469;51.114;13.914;2023-01-15T13:16:30;1.40;;;1.30;;
18677;SDS011;9469;51.114;13.914;2023-01-15T13:21:50;1.20;;;1.10;;
18677;SDS011;9469;51.114;13.914;2023-01-15T13:27:09;1.10;;;1.10;;
18677;SDS011;9469;51.114;13.914;2023-01-15T13:32:26;1.20;;;1.10;;
18677;SDS011;9469;51.114;13.914;2023-01-15T13:37:41;1.30;;;1.20;;
18677;SDS011;9469;51.114;13.914;2023-01-15T13:42:48;1.17;;;1.13;;
18677;SDS011;9469;51.114;13.914;2023-01-15T13:47:56;1.23;;;1.10;;
18677;SDS011;9469;51.114;13.914;2023-01-15T13:53:12;1.67;;;1.50;;
18677;SDS011;9469;51.114;13.914;2023-01-15T13:58:24;1.00;;;1.00;;
18677;SDS011;9469;51.114;13.914;2023-01-15T14:03:34;2.03;;;1.40;;
18677;SDS011;9469;51.114;13.914;2023-01-15T14:08:43;1.23;;;1.10;;
18677;SDS011;9469;51.114;13.914;2023-01-15T14:14:05;2.37;;;1.00;;
18677;SDS011;9469;51.114;13.914;2023-01-15T14:19:23;4.63;;;1.00;;
18677;SDS011;9469;51.114;13.914;2023-01-15T14:24:48;1.30;;;1.20;;
18677;SDS011;9469;51.114;13.914;2023-01-15T14:30:15;1.03;;;0.97;;
18677;SDS011;9469;51.114;13.914;2023-01-15T14:35:35;1.30;;;1.30;;
18677;SDS011;9469;51.114;13.914;2023-01-15T14:40:52;1.40;;;1.30;;
18677;SDS011;9469;51.114;13.914;2023-01-15T14:46:07;1.77;;;1.10;;
18677;SDS011;9469;51.114;13.914;2023-01-15T14:51:21;1.07;;;1.00;;
18677;SDS011;9469;51.114;13.914;2023-01-15T14:56:33;1.07;;;1.07;;
18677;SDS011;9469;51.114;13.914;2023-01-15T15:01:43;0.80;;;0.80;;
18677;SDS011;9469;51.114;13.914;2023-01-15T15:06:54;1.00;;;1.00;;
18677;SDS011;9469;51.114;13.914;2023-01-15T15:12:13;1.00;;;1.00;;
18677;SDS011;9469;51.114;13.914;2023-01-15T15:17:32;1.13;;;1.13;;
18677;SDS011;9469;51.114;13.914;2023-01-15T15:22:43;1.30;;;1.20;;
18677;SDS011;9469;51.114;13.914;2023-01-15T15:28:04;1.20;;;1.10;;
18677;SDS011;9469;51.114;13.914;2023-01-15T15:33:15;3.47;;;1.67;;
18677;SDS011;9469;51.114;13.914;2023-01-15T15:38:23;1.40;;;1.30;;
18677;SDS011;9469;51.114;13.914;2023-01-15T15:43:33;0.90;;;0.90;;
18677;SDS011;9469;51.114;13.914;2023-01-15T15:48:59;1.67;;;1.57;;
18677;SDS011;9469;51.114;13.914;2023-01-15T15:54:13;4.33;;;1.10;;
18677;SDS011;9469;51.114;13.914;2023-01-15T15:59:27;1.07;;;1.00;;
18677;SDS011;9469;51.114;13.914;2023-01-15T16:04:36;1.23;;;1.20;;
18677;SDS011;9469;51.114;13.914;2023-01-15T16:09:47;1.10;;;1.10;;
18677;SDS011;9469;51.114;13.914;2023-01-15T16:14:57;2.97;;;1.77;;
18677;SDS011;9469;51.114;13.914;2023-01-15T16:20:04;2.07;;;1.87;;
18677;SDS011;9469;51.114;13.914;2023-01-15T16:25:21;1.60;;;1.50;;
18677;SDS011;9469;51.114;13.914;2023-01-15T16:30:31;1.40;;;1.30;;
18677;SDS011;9469;51.114;13.914;2023-01-15T16:35:36;1.33;;;1.30;;
18677;SDS011;9469;51.114;13.914;2023-01-15T16:40:44;1.20;;;1.07;;
18677;SDS011;9469;51.114;13.914;2023-01-15T16:46:00;2.87;;;1.37;;
18677;SDS011;9469;51.114;13.914;2023-01-15T16:51:23;2.70;;;1.37;;
18677;SDS011;9469;51.114;13.914;2023-01-15T17:02:04;1.67;;;1.50;;
18677;SDS011;9469;51.114;13.914;2023-01-15T17:07:17;1.10;;;1.00;;
18677;SDS011;9469;51.114;13.914;2023-01-15T17:12:24;1.47;;;1.37;;
18677;SDS011;9469;51.114;13.914;2023-01-15T17:17:35;1.60;;;1.30;;
18677;SDS011;9469;51.114;13.914;2023-01-15T17:22:42;2.00;;;1.90;;
18677;SDS011;9469;51.114;13.914;2023-01-15T17:27:48;1.40;;;1.30;;
18677;SDS011;9469;51.114;13.914;2023-01-15T17:32:56;2.17;;;1.20;;
18677;SDS011;9469;51.114;13.914;2023-01-15T17:38:01;2.03;;;1.43;;
18677;SDS011;9469;51.114;13.914;2023-01-15T17:43:08;2.23;;;1.73;;
18677;SDS011;9469;51.114;13.914;2023-01-15T17:48:19;1.60;;;1.50;;
18677;SDS011;9469;51.114;13.914;2023-01-15T17:53:24;4.57;;;2.13;;
18677;SDS011;9469;51.114;13.914;2023-01-15T17:58:30;5.57;;;2.87;;
18677;SDS011;9469;51.114;13.914;2023-01-15T18:03:51;2.50;;;2.00;;
18677;SDS011;9469;51.114;13.914;2023-01-15T18:09:10;3.63;;;2.13;;
18677;SDS011;9469;51.114;13.914;2023-01-15T18:14:16;1.93;;;1.80;;
18677;SDS011;9469;51.114;13.914;2023-01-15T18:19:23;1.70;;;1.60;;
18677;SDS011;9469;51.114;13.914;2023-01-15T18:24:28;1.90;;;1.37;;
18677;SDS011;9469;51.114;13.914;2023-01-15T18:29:34;1.70;;;1.60;;
18677;SDS011;9469;51.114;13.914;2023-01-15T18:34:43;1.90;;;1.40;;
18677;SDS011;9469;51.114;13.914;2023-01-15T18:39:48;2.50;;;1.50;;
18677;SDS011;9469;51.114;13.914;2023-01-15T18:44:54;3.43;;;1.60;;
18677;SDS011;9469;51.114;13.914;2023-01-15T18:50:15;1.93;;;1.53;;
18677;SDS011;9469;51.114;13.914;2023-01-15T18:55:21;2.80;;;1.40;;
18677;SDS011;9469;51.114;13.914;2023-01-15T19:00:28;7.07;;;3.47;;
18677;SDS011;9469;51.114;13.914;2023-01-15T19:05:35;4.30;;;2.73;;
18677;SDS011;9469;51.114;13.914;2023-01-15T19:10:40;3.63;;;1.47;;
18677;SDS011;9469;51.114;13.914;2023-01-15T19:15:46;1.53;;;1.33;;
18677;SDS011;9469;51.114;13.914;2023-01-15T19:21:09;2.90;;;1.47;;
18677;SDS011;9469;51.114;13.914;2023-01-15T19:26:19;1.60;;;1.53;;
18677;SDS011;9469;51.114;13.914;2023-01-15T19:31:25;2.87;;;1.50;;
18677;SDS011;9469;51.114;13.914;2023-01-15T19:36:43;3.57;;;1.27;;
18677;SDS011;9469;51.114;13.914;2023-01-15T19:41:50;1.50;;;1.40;;
18677;SDS011;9469;51.114;13.914;2023-01-15T19:47:08;8.37;;;4.30;;
18677;SDS011;9469;51.114;13.914;2023-01-15T19:52:32;7.43;;;2.90;;
18677;SDS011;9469;51.114;13.914;2023-01-15T19:57:42;2.40;;;1.40;;
18677;SDS011;9469;51.114;13.914;2023-01-15T20:02:49;4.37;;;1.93;;
18677;SDS011;9469;51.114;13.914;2023-01-15T20:07:59;3.90;;;1.77;;
18677;SDS011;9469;51.114;13.914;2023-01-15T20:13:08;2.30;;;1.60;;
18677;SDS011;9469;51.114;13.914;2023-01-15T20:18:28;2.93;;;1.43;;
18677;SDS011;9469;51.114;13.914;2023-01-15T20:23:37;3.23;;;1.87;;
18677;SDS011;9469;51.114;13.914;2023-01-15T20:28:42;2.90;;;1.97;;
18677;SDS011;9469;51.114;13.914;2023-01-15T20:33:49;1.90;;;1.80;;
18677;SDS011;9469;51.114;13.914;2023-01-15T20:38:59;4.23;;;2.10;;
18677;SDS011;9469;51.114;13.914;2023-01-15T20:44:05;2.30;;;1.87;;
18677;SDS011;9469;51.114;13.914;2023-01-15T20:49:23;1.73;;;1.63;;
18677;SDS011;9469;51.114;13.914;2023-01-15T20:54:33;3.80;;;1.90;;
18677;SDS011;9469;51.114;13.914;2023-01-15T20:59:42;1.60;;;1.50;;
18677;SDS011;9469;51.114;13.914;2023-01-15T21:04:47;3.33;;;1.40;;
18677;SDS011;9469;51.114;13.914;2023-01-15T21:09:56;1.50;;;1.40;;
18677;SDS011;9469;51.114;13.914;2023-01-15T21:15:01;3.47;;;1.77;;
18677;SDS011;9469;51.114;13.914;2023-01-15T21:20:08;6.73;;;2.70;;
18677;SDS011;9469;51.114;13.914;2023-01-15T21:25:19;4.70;;;1.50;;
18677;SDS011;9469;51.114;13.914;2023-01-15T21:30:24;2.50;;;1.80;;
18677;SDS011;9469;51.114;13.914;2023-01-15T21:35:29;1.93;;;1.17;;
18677;SDS011;9469;51.114;13.914;2023-01-15T21:40:37;2.97;;;1.63;;
18677;SDS011;9469;51.114;13.914;2023-01-15T21:45:43;2.97;;;1.27;;
18677;SDS011;9469;51.114;13.914;2023-01-15T21:50:49;1.87;;;1.40;;
18677;SDS011;9469;51.114;13.914;2023-01-15T21:55:56;3.77;;;1.43;;
18677;SDS011;9469;51.114;13.914;2023-01-15T22:01:06;2.70;;;1.50;;
18677;SDS011;9469;51.114;13.914;2023-01-15T22:06:16;2.60;;;1.70;;
18677;SDS011;9469;51.114;13.914;2023-01-15T22:11:23;3.30;;;1.43;;
18677;SDS011;9469;51.114;13.914;2023-01-15T22:16:44;4.90;;;1.57;;
18677;SDS011;9469;51.114;13.914;2023-01-15T22:21:50;1.93;;;1.73;;
18677;SDS011;9469;51.114;13.914;2023-01-15T22:26:59;3.27;;;1.20;;
18677;SDS011;9469;51.114;13.914;2023-01-15T22:32:07;1.93;;;1.30;;
18677;SDS011;9469;51.114;13.914;2023-01-15T22:37:14;4.07;;;1.47;;
18677;SDS011;9469;51.114;13.914;2023-01-15T22:42:21;1.90;;;1.47;;
18677;SDS011;9469;51.114;13.914;2023-01-15T22:47:33;1.57;;;1.47;;
18677;SDS011;9469;51.114;13.914;2023-01-15T22:52:38;5.80;;;1.27;;
18677;SDS011;9469;51.114;13.914;2023-01-15T22:57:46;2.57;;;1.60;;
18677;SDS011;9469;51.114;13.914;2023-01-15T23:02:51;2.90;;;1.40;;
18677;SDS011;9469;51.114;13.914;2023-01-15T23:08:05;3.67;;;1.37;;
18677;SDS011;9469;51.114;13.914;2023-01-15T23:13:13;1.37;;;1.20;;
18677;SDS011;9469;51.114;13.914;2023-01-15T23:18:18;1.50;;;1.40;;
18677;SDS011;9469;51.114;13.914;2023-01-15T23:23:23;1.50;;;1.40;;
18677;SDS011;9469;51.114;13.914;2023-01-15T23:28:31;1.37;;;1.27;;
18677;SDS011;9469;51.114;13.914;2023-01-15T23:33:37;1.70;;;1.60;;
18677;SDS011;9469;51.114;13.914;2023-01-15T23:38:42;1.60;;;1.50;;
18677;SDS011;9469;51.114;13.914;2023-01-15T23:43:50;2.73;;;1.63;;
18677;SDS011;9469;51.114;13.914;2023-01-15T23:49:08;3.17;;;2.10;;
18677;SDS011;9469;51.114;13.914;2023-01-15T23:54:15;3.17;;;2.07;;
18677;SDS011;9469;51.114;13.914;2023-01-15T23:59:24;2.33;;;2.13;;
